createdAt,value
2018-11-28T00:00:31.355Z,3.68
2018-11-28T00:01:31.396Z,3.75
2018-11-28T00:02:31.372Z,3.72
2018-11-28T00:03:31.285Z,3.68
2018-11-28T00:04:31.273Z,3.70
2018-11-28T00:05:31.241Z,3.75
2018-11-28T00:06:31.227Z,3.65
2018-11-28T00:07:31.222Z,3.60
2018-11-28T00:08:31.177Z,3.58
2018-11-28T00:09:31.226Z,3.61
2018-11-28T00:10:31.135Z,3.58
2018-11-28T00:11:31.099Z,3.60
2018-11-28T00:12:31.096Z,3.60
2018-11-28T00:13:31.062Z,3.60
2018-11-28T00:14:31.034Z,3.60
2018-11-28T00:15:31.016Z,3.61
2018-11-28T00:16:30.983Z,3.62
2018-11-28T00:17:30.972Z,3.70
2018-11-28T00:18:30.940Z,3.61
2018-11-28T00:19:30.936Z,3.65
2018-11-28T00:20:30.892Z,3.61
2018-11-28T00:21:30.871Z,3.61
2018-11-28T00:22:30.858Z,3.62
2018-11-28T00:23:30.834Z,3.60
2018-11-28T00:24:30.797Z,3.54
2018-11-28T00:25:30.775Z,3.58
2018-11-28T00:26:30.761Z,3.54
2018-11-28T00:27:30.731Z,3.57
2018-11-28T00:28:30.727Z,3.57
2018-11-28T00:29:30.697Z,3.55
2018-11-28T00:30:30.670Z,3.52
2018-11-28T00:31:30.652Z,3.52
2018-11-28T00:32:30.617Z,3.65
2018-11-28T00:33:30.594Z,3.52
2018-11-28T00:34:30.586Z,3.60
2018-11-28T00:35:30.566Z,3.57
2018-11-28T00:36:30.535Z,3.54
2018-11-28T00:37:30.502Z,3.58
2018-11-28T00:38:30.474Z,3.52
2018-11-28T00:39:30.472Z,3.57
2018-11-28T00:40:30.448Z,3.60
2018-11-28T00:41:30.416Z,3.60
2018-11-28T00:42:30.382Z,3.61
2018-11-28T00:43:30.379Z,3.60
2018-11-28T00:44:30.344Z,3.58
2018-11-28T00:45:30.647Z,3.68
2018-11-28T00:46:30.315Z,3.54
2018-11-28T00:47:30.299Z,3.72
2018-11-28T00:48:30.248Z,3.69
2018-11-28T00:49:30.238Z,3.69
2018-11-28T00:50:30.223Z,3.75
2018-11-28T00:51:30.174Z,3.69
2018-11-28T00:52:30.158Z,3.72
2018-11-28T00:53:30.171Z,3.72
2018-11-28T00:54:30.110Z,3.58
2018-11-28T00:55:30.087Z,3.62
2018-11-28T00:56:30.079Z,3.66
2018-11-28T00:57:30.038Z,3.80
2018-11-28T00:58:30.016Z,3.68
2018-11-28T00:59:29.989Z,3.70
2018-11-28T01:00:30.031Z,3.69
2018-11-28T01:01:29.960Z,3.75
2018-11-28T01:02:29.925Z,3.69
2018-11-28T01:03:29.899Z,3.70
2018-11-28T01:04:29.881Z,3.69
2018-11-28T01:05:29.861Z,3.75
2018-11-28T01:06:29.852Z,3.68
2018-11-28T01:07:29.826Z,3.72
2018-11-28T01:08:29.799Z,3.79
2018-11-28T01:09:29.763Z,3.76
2018-11-28T01:10:29.742Z,3.83
2018-11-28T01:11:29.717Z,3.80
2018-11-28T01:12:29.696Z,3.80
2018-11-28T01:13:29.688Z,3.80
2018-11-28T01:14:29.733Z,3.83
2018-11-28T01:15:29.632Z,3.76
2018-11-28T01:16:29.621Z,3.83
2018-11-28T01:17:29.586Z,3.80
2018-11-28T01:18:29.576Z,3.86
2018-11-28T01:19:29.539Z,3.86
2018-11-28T01:20:29.512Z,3.97
2018-11-28T01:21:29.489Z,3.87
2018-11-28T01:22:29.464Z,3.94
2018-11-28T01:23:29.459Z,4.02
2018-11-28T01:24:29.419Z,3.98
2018-11-28T01:25:29.393Z,4.02
2018-11-28T01:26:29.373Z,4.04
2018-11-28T01:27:29.356Z,4.04
2018-11-28T01:28:29.334Z,4.04
2018-11-28T01:29:29.326Z,4.00
2018-11-28T01:30:29.285Z,3.96
2018-11-28T01:31:29.255Z,4.04
2018-11-28T01:32:29.235Z,4.05
2018-11-28T01:33:29.224Z,4.05
2018-11-28T01:34:29.186Z,3.98
2018-11-28T01:35:29.179Z,3.97
2018-11-28T01:36:29.144Z,4.14
2018-11-28T01:37:29.120Z,3.96
2018-11-28T01:38:29.144Z,4.09
2018-11-28T01:39:29.068Z,4.02
2018-11-28T01:40:29.066Z,4.11
2018-11-28T01:41:29.030Z,4.15
2018-11-28T01:42:29.002Z,4.12
2018-11-28T01:43:28.983Z,4.12
2018-11-28T01:44:28.954Z,4.00
2018-11-28T01:45:28.950Z,4.06
2018-11-28T01:46:28.909Z,4.08
2018-11-28T01:47:28.890Z,4.16
2018-11-28T01:48:28.862Z,4.15
2018-11-28T01:49:28.840Z,4.08
2018-11-28T01:50:28.835Z,3.98
2018-11-28T01:51:28.796Z,3.98
2018-11-28T01:52:28.773Z,3.98
2018-11-28T01:53:28.755Z,4.11
2018-11-28T01:54:28.739Z,4.16
2018-11-28T01:55:28.722Z,4.09
2018-11-28T01:56:28.683Z,4.11
2018-11-28T01:57:28.662Z,4.16
2018-11-28T01:58:28.637Z,4.05
2018-11-28T01:59:28.614Z,4.08
2018-11-28T02:00:28.606Z,4.16
2018-11-28T02:01:28.581Z,4.06
2018-11-28T02:02:28.546Z,4.04
2018-11-28T02:03:28.521Z,4.05
2018-11-28T02:04:28.500Z,4.04
2018-11-28T02:05:28.494Z,4.11
2018-11-28T02:06:28.447Z,4.15
2018-11-28T02:07:28.431Z,4.11
2018-11-28T02:08:28.409Z,4.09
2018-11-28T02:09:28.483Z,4.12
2018-11-28T02:10:28.357Z,4.08
2018-11-28T02:11:28.349Z,4.09
2018-11-28T02:12:28.318Z,4.09
2018-11-28T02:13:28.292Z,4.12
2018-11-28T02:14:28.268Z,4.05
2018-11-28T02:15:28.246Z,4.09
2018-11-28T02:16:28.250Z,4.06
2018-11-28T02:17:28.193Z,4.12
2018-11-28T02:18:28.179Z,4.18
2018-11-28T02:19:28.153Z,4.06
2018-11-28T02:20:28.127Z,4.08
2018-11-28T02:21:28.121Z,4.06
2018-11-28T02:22:28.090Z,4.04
2018-11-28T02:23:28.081Z,4.05
2018-11-28T02:24:28.039Z,4.00
2018-11-28T02:25:28.020Z,4.14
2018-11-28T02:26:27.999Z,3.98
2018-11-28T02:27:27.970Z,4.04
2018-11-28T02:28:27.967Z,4.08
2018-11-28T02:29:27.922Z,3.98
2018-11-28T02:30:27.916Z,4.08
2018-11-28T02:31:27.879Z,3.98
2018-11-28T02:32:27.877Z,3.98
2018-11-28T02:33:27.849Z,4.02
2018-11-28T02:34:27.806Z,4.00
2018-11-28T02:35:27.810Z,4.06
2018-11-28T02:36:27.785Z,3.97
2018-11-28T02:37:27.736Z,3.96
2018-11-28T02:38:27.732Z,3.98
2018-11-28T02:39:27.701Z,4.08
2018-11-28T02:40:27.681Z,4.12
2018-11-28T02:41:27.649Z,4.02
2018-11-28T02:42:27.626Z,4.06
2018-11-28T02:43:27.603Z,4.12
2018-11-28T02:44:27.598Z,4.06
2018-11-28T02:45:27.562Z,4.11
2018-11-28T02:46:27.547Z,4.14
2018-11-28T02:47:27.513Z,4.11
2018-11-28T02:48:27.488Z,4.06
2018-11-28T02:49:27.475Z,4.18
2018-11-28T02:50:27.471Z,4.05
2018-11-28T02:51:27.431Z,4.08
2018-11-28T02:52:27.402Z,4.08
2018-11-28T02:53:27.380Z,4.04
2018-11-28T02:54:27.350Z,4.04
2018-11-28T02:55:27.344Z,4.11
2018-11-28T02:56:27.306Z,4.06
2018-11-28T02:57:27.285Z,4.04
2018-11-28T02:58:27.263Z,4.12
2018-11-28T02:59:27.237Z,4.18
2018-11-28T03:00:27.240Z,4.09
2018-11-28T03:01:27.190Z,4.11
2018-11-28T03:02:27.170Z,4.18
2018-11-28T03:03:27.146Z,4.08
2018-11-28T03:04:27.124Z,4.16
2018-11-28T03:05:27.107Z,4.15
2018-11-28T03:06:27.115Z,4.11
2018-11-28T03:07:27.055Z,4.09
2018-11-28T03:08:27.032Z,4.11
2018-11-28T03:09:27.012Z,4.27
2018-11-28T03:10:27.018Z,4.24
2018-11-28T03:11:26.978Z,4.29
2018-11-28T03:12:26.937Z,4.29
2018-11-28T03:13:26.913Z,4.26
2018-11-28T03:14:26.900Z,4.29
2018-11-28T03:15:26.873Z,4.22
2018-11-28T03:16:26.867Z,4.27
2018-11-28T03:17:26.831Z,4.33
2018-11-28T03:18:26.802Z,4.32
2018-11-28T03:19:26.781Z,4.22
2018-11-28T03:20:26.759Z,4.32
2018-11-28T03:21:26.821Z,4.34
2018-11-28T03:22:26.712Z,4.30
2018-11-28T03:23:26.687Z,4.34
2018-11-28T03:24:26.665Z,4.34
2018-11-28T03:25:26.642Z,4.41
2018-11-28T03:26:26.637Z,4.42
2018-11-28T03:27:26.614Z,4.34
2018-11-28T03:28:26.570Z,4.41
2018-11-28T03:29:26.549Z,4.34
2018-11-28T03:30:26.535Z,4.34
2018-11-28T03:31:26.502Z,4.41
2018-11-28T03:32:26.513Z,4.41
2018-11-28T03:33:26.476Z,4.41
2018-11-28T03:34:26.437Z,4.41
2018-11-28T03:35:26.415Z,4.47
2018-11-28T03:36:26.393Z,4.41
2018-11-28T03:37:26.369Z,4.47
2018-11-28T03:38:26.367Z,4.41
2018-11-28T03:39:26.322Z,4.42
2018-11-28T03:40:26.301Z,4.45
2018-11-28T03:41:26.287Z,4.47
2018-11-28T03:42:26.255Z,4.41
2018-11-28T03:43:26.252Z,4.37
2018-11-28T03:44:26.212Z,4.37
2018-11-28T03:45:26.209Z,4.44
2018-11-28T03:46:26.167Z,4.45
2018-11-28T03:47:27.056Z,4.45
2018-11-28T03:48:26.132Z,4.40
2018-11-28T03:49:26.096Z,4.41
2018-11-28T03:50:26.076Z,4.42
2018-11-28T03:51:26.063Z,4.44
2018-11-28T03:52:26.028Z,4.41
2018-11-28T03:53:26.009Z,4.42
2018-11-28T03:54:26.000Z,4.41
2018-11-28T03:55:25.978Z,4.44
2018-11-28T03:56:25.952Z,4.44
2018-11-28T03:57:25.911Z,4.50
2018-11-28T03:58:25.890Z,4.59
2018-11-28T03:59:25.868Z,4.51
2018-11-28T04:00:26.004Z,4.51
2018-11-28T04:01:25.824Z,4.48
2018-11-28T04:02:25.805Z,4.54
2018-11-28T04:03:25.780Z,4.54
2018-11-28T04:04:25.757Z,4.47
2018-11-28T04:05:25.755Z,4.52
2018-11-28T04:06:25.717Z,4.55
2018-11-28T04:07:25.685Z,4.52
2018-11-28T04:08:25.665Z,4.59
2018-11-28T04:09:25.639Z,4.51
2018-11-28T04:10:25.631Z,4.59
2018-11-28T04:11:25.620Z,4.52
2018-11-28T04:12:25.571Z,4.62
2018-11-28T04:13:25.550Z,4.54
2018-11-28T04:14:25.531Z,4.54
2018-11-28T04:15:25.509Z,4.62
2018-11-28T04:16:25.500Z,4.62
2018-11-28T04:17:25.482Z,4.59
2018-11-28T04:18:25.444Z,4.59
2018-11-28T04:19:25.414Z,4.60
2018-11-28T04:20:25.396Z,4.62
2018-11-28T04:21:25.369Z,4.58
2018-11-28T04:22:25.361Z,4.62
2018-11-28T04:23:25.329Z,4.63
2018-11-28T04:24:25.309Z,4.60
2018-11-28T04:25:25.274Z,4.55
2018-11-28T04:26:25.254Z,4.59
2018-11-28T04:27:25.230Z,4.69
2018-11-28T04:28:25.240Z,4.62
2018-11-28T04:29:25.187Z,4.62
2018-11-28T04:30:25.166Z,4.66
2018-11-28T04:31:25.144Z,4.70
2018-11-28T04:32:25.120Z,4.69
2018-11-28T04:33:25.106Z,4.69
2018-11-28T04:34:25.098Z,4.72
2018-11-28T04:35:25.056Z,4.69
2018-11-28T04:36:25.030Z,4.69
2018-11-28T04:37:25.008Z,4.75
2018-11-28T04:38:25.003Z,4.70
2018-11-28T04:39:24.961Z,4.73
2018-11-28T04:40:24.938Z,4.72
2018-11-28T04:41:24.915Z,4.77
2018-11-28T04:42:24.899Z,4.67
2018-11-28T04:43:24.872Z,4.82
2018-11-28T04:44:24.869Z,4.72
2018-11-28T04:45:24.827Z,4.66
2018-11-28T04:46:24.802Z,4.77
2018-11-28T04:47:24.782Z,4.77
2018-11-28T04:48:24.753Z,4.72
2018-11-28T04:49:24.752Z,4.73
2018-11-28T04:50:24.759Z,4.72
2018-11-28T04:51:24.698Z,4.70
2018-11-28T04:52:24.670Z,4.70
2018-11-28T04:53:24.646Z,4.70
2018-11-28T04:54:24.622Z,4.70
2018-11-28T04:55:24.615Z,4.69
2018-11-28T04:56:24.584Z,4.69
2018-11-28T04:57:24.559Z,4.72
2018-11-28T04:58:24.534Z,4.75
2018-11-28T04:59:24.507Z,4.75
2018-11-28T05:00:24.510Z,4.59
2018-11-28T05:01:24.464Z,4.66
2018-11-28T05:02:24.440Z,4.69
2018-11-28T05:03:24.416Z,4.69
2018-11-28T05:04:24.403Z,4.77
2018-11-28T05:05:24.401Z,4.78
2018-11-28T05:06:24.346Z,4.80
2018-11-28T05:07:24.341Z,4.80
2018-11-28T05:08:24.302Z,4.73
2018-11-28T05:09:24.282Z,4.73
2018-11-28T05:10:24.282Z,4.77
2018-11-28T05:11:24.251Z,4.85
2018-11-28T05:12:24.221Z,4.77
2018-11-28T05:13:24.187Z,4.78
2018-11-28T05:14:24.184Z,4.73
2018-11-28T05:15:24.143Z,4.85
2018-11-28T05:16:24.140Z,4.85
2018-11-28T05:17:24.098Z,4.84
2018-11-28T05:18:24.077Z,4.85
2018-11-28T05:19:24.053Z,4.82
2018-11-28T05:20:24.029Z,4.89
2018-11-28T05:21:24.025Z,4.88
2018-11-28T05:22:23.985Z,4.94
2018-11-28T05:23:23.958Z,4.80
2018-11-28T05:24:23.940Z,4.78
2018-11-28T05:25:23.934Z,4.85
2018-11-28T05:26:23.897Z,4.91
2018-11-28T05:27:23.870Z,4.88
2018-11-28T05:28:23.867Z,4.86
2018-11-28T05:29:23.830Z,4.86
2018-11-28T05:30:23.815Z,4.86
2018-11-28T05:31:23.799Z,4.99
2018-11-28T05:32:23.758Z,5.04
2018-11-28T05:33:23.755Z,4.91
2018-11-28T05:34:23.716Z,4.99
2018-11-28T05:35:23.701Z,4.99
2018-11-28T05:36:23.690Z,4.97
2018-11-28T05:37:23.646Z,5.02
2018-11-28T05:38:23.626Z,4.92
2018-11-28T05:39:23.597Z,4.94
2018-11-28T05:40:23.582Z,4.94
2018-11-28T05:41:23.571Z,4.94
2018-11-28T05:42:23.533Z,4.97
2018-11-28T05:43:23.570Z,5.04
2018-11-28T05:44:23.496Z,4.97
2018-11-28T05:45:23.468Z,5.07
2018-11-28T05:46:23.465Z,5.04
2018-11-28T05:47:23.419Z,5.03
2018-11-28T05:48:23.394Z,5.00
2018-11-28T05:49:23.390Z,5.07
2018-11-28T05:50:23.356Z,5.09
2018-11-28T05:51:23.346Z,5.09
2018-11-28T05:52:23.303Z,5.10
2018-11-28T05:53:23.294Z,5.09
2018-11-28T05:54:23.263Z,5.12
2018-11-28T05:55:23.265Z,5.07
2018-11-28T05:56:23.233Z,5.07
2018-11-28T05:57:23.358Z,4.99
2018-11-28T05:58:23.191Z,5.03
2018-11-28T05:59:27.334Z,5.06
2018-11-28T06:00:23.125Z,5.02
2018-11-28T06:01:23.122Z,5.09
2018-11-28T06:02:23.081Z,5.07
2018-11-28T06:03:23.075Z,5.04
2018-11-28T06:04:23.036Z,5.04
2018-11-28T06:05:23.011Z,5.06
2018-11-28T06:06:22.994Z,5.15
2018-11-28T06:07:22.969Z,5.10
2018-11-28T06:08:22.971Z,5.13
2018-11-28T06:09:22.951Z,5.17
2018-11-28T06:10:22.947Z,5.04
2018-11-28T06:11:22.879Z,5.04
2018-11-28T06:12:22.888Z,5.04
2018-11-28T06:13:22.835Z,5.12
2018-11-28T06:14:22.811Z,5.04
2018-11-28T06:15:22.788Z,4.99
2018-11-28T06:16:22.765Z,5.06
2018-11-28T06:17:22.757Z,5.03
2018-11-28T06:18:22.721Z,5.04
2018-11-28T06:19:22.716Z,5.04
2018-11-28T06:20:22.676Z,5.12
2018-11-28T06:21:22.661Z,5.12
2018-11-28T06:22:22.641Z,5.07
2018-11-28T06:23:22.607Z,5.13
2018-11-28T06:24:22.607Z,5.10
2018-11-28T06:25:22.566Z,5.12
2018-11-28T06:26:22.547Z,5.18
2018-11-28T06:27:22.517Z,5.12
2018-11-28T06:28:22.496Z,5.06
2018-11-28T06:29:22.497Z,5.07
2018-11-28T06:30:22.455Z,5.04
2018-11-28T06:31:22.441Z,5.12
2018-11-28T06:32:22.409Z,5.07
2018-11-28T06:33:22.387Z,5.09
2018-11-28T06:34:22.361Z,5.13
2018-11-28T06:35:22.335Z,5.12
2018-11-28T06:36:22.332Z,5.12
2018-11-28T06:37:22.296Z,5.10
2018-11-28T06:38:22.268Z,5.10
2018-11-28T06:39:22.246Z,5.07
2018-11-28T06:40:24.293Z,5.10
2018-11-28T06:41:22.205Z,5.12
2018-11-28T06:42:22.181Z,5.12
2018-11-28T06:43:22.179Z,5.15
2018-11-28T06:44:22.132Z,5.12
2018-11-28T06:45:22.113Z,5.17
2018-11-28T06:46:22.088Z,5.13
2018-11-28T06:47:22.066Z,5.10
2018-11-28T06:48:22.061Z,5.13
2018-11-28T06:49:22.042Z,5.17
2018-11-28T06:50:21.998Z,5.17
2018-11-28T06:51:21.977Z,5.15
2018-11-28T06:52:22.007Z,5.28
2018-11-28T06:53:21.955Z,5.28
2018-11-28T06:54:21.910Z,5.28
2018-11-28T06:55:21.939Z,5.22
2018-11-28T06:56:21.882Z,5.28
2018-11-28T06:57:21.841Z,5.22
2018-11-28T06:58:21.818Z,5.24
2018-11-28T06:59:21.795Z,5.25
2018-11-28T07:00:21.784Z,5.25
2018-11-28T07:01:21.747Z,5.28
2018-11-28T07:02:21.752Z,5.28
2018-11-28T07:03:21.706Z,5.22
2018-11-28T07:04:21.729Z,5.36
2018-11-28T07:05:21.691Z,5.30
2018-11-28T07:06:21.644Z,5.21
2018-11-28T07:07:21.616Z,5.31
2018-11-28T07:08:21.600Z,5.36
2018-11-28T07:09:21.573Z,5.54
2018-11-28T07:10:21.574Z,5.51
2018-11-28T07:11:21.522Z,5.61
2018-11-28T07:12:21.523Z,5.72
2018-11-28T07:13:21.485Z,5.74
2018-11-28T07:14:21.468Z,5.65
2018-11-28T07:15:21.438Z,5.65
2018-11-28T07:16:21.685Z,5.65
2018-11-28T07:17:21.391Z,5.65
2018-11-28T07:18:21.374Z,5.76
2018-11-28T07:19:21.357Z,5.71
2018-11-28T07:20:21.327Z,5.74
2018-11-28T07:21:21.324Z,5.65
2018-11-28T07:22:21.283Z,5.58
2018-11-28T07:23:21.257Z,5.64
2018-11-28T07:24:21.236Z,5.79
2018-11-28T07:25:21.214Z,5.68
2018-11-28T07:26:21.218Z,5.72
2018-11-28T07:27:21.169Z,5.61
2018-11-28T07:28:21.220Z,5.56
2018-11-28T07:29:21.133Z,5.57
2018-11-28T07:30:21.127Z,5.49
2018-11-28T07:31:21.094Z,5.56
2018-11-28T07:32:21.054Z,5.53
2018-11-28T07:33:21.043Z,5.46
2018-11-28T07:34:21.013Z,5.51
2018-11-28T07:35:21.009Z,5.40
2018-11-28T07:36:20.991Z,5.54
2018-11-28T07:37:20.944Z,5.54
2018-11-28T07:38:20.937Z,5.45
2018-11-28T07:39:20.909Z,5.46
2018-11-28T07:40:20.969Z,5.56
2018-11-28T07:41:21.577Z,5.54
2018-11-28T07:42:20.838Z,5.51
2018-11-28T07:43:20.826Z,5.57
2018-11-28T07:44:20.802Z,5.61
2018-11-28T07:45:20.765Z,5.60
2018-11-28T07:46:20.738Z,5.65
2018-11-28T07:47:20.716Z,5.72
2018-11-28T07:48:20.694Z,5.72
2018-11-28T07:49:20.692Z,5.68
2018-11-28T07:50:20.659Z,5.68
2018-11-28T07:51:20.628Z,5.72
2018-11-28T07:52:20.612Z,5.68
2018-11-28T07:53:20.605Z,5.61
2018-11-28T07:54:20.564Z,5.64
2018-11-28T07:55:20.563Z,5.63
2018-11-28T07:56:20.517Z,5.60
2018-11-28T07:57:20.514Z,5.58
2018-11-28T07:58:20.482Z,5.58
2018-11-28T07:59:20.467Z,5.57
2018-11-28T08:00:20.437Z,5.63
2018-11-28T08:01:20.404Z,5.60
2018-11-28T08:02:20.391Z,5.61
2018-11-28T08:03:20.362Z,5.58
2018-11-28T08:04:20.642Z,5.61
2018-11-28T08:05:20.339Z,5.67
2018-11-28T08:06:20.301Z,5.60
2018-11-28T08:07:20.279Z,5.60
2018-11-28T08:08:20.280Z,5.65
2018-11-28T08:09:20.241Z,5.58
2018-11-28T08:10:20.221Z,5.67
2018-11-28T08:11:20.195Z,5.65
2018-11-28T08:12:20.165Z,5.75
2018-11-28T08:13:20.139Z,6.12
2018-11-28T08:14:20.139Z,6.15
2018-11-28T08:15:20.096Z,6.08
2018-11-28T08:16:20.078Z,5.99
2018-11-28T08:17:20.056Z,5.97
2018-11-28T08:18:20.039Z,5.85
2018-11-28T08:19:24.029Z,5.85
2018-11-28T08:20:19.986Z,5.91
2018-11-28T08:21:19.959Z,5.78
2018-11-28T08:22:19.941Z,5.89
2018-11-28T08:23:19.922Z,5.81
2018-11-28T08:24:19.898Z,5.81
2018-11-28T08:25:19.889Z,5.85
2018-11-28T08:26:19.869Z,5.83
2018-11-28T08:27:19.847Z,5.85
2018-11-28T08:28:19.827Z,5.85
2018-11-28T08:29:19.786Z,5.90
2018-11-28T08:30:19.935Z,5.83
2018-11-28T08:31:19.761Z,5.89
2018-11-28T08:32:19.723Z,5.89
2018-11-28T08:33:19.694Z,5.91
2018-11-28T08:34:19.674Z,5.91
2018-11-28T08:35:19.651Z,5.93
2018-11-28T08:36:19.649Z,5.93
2018-11-28T08:37:19.607Z,5.83
2018-11-28T08:38:19.596Z,5.96
2018-11-28T08:39:19.565Z,5.90
2018-11-28T08:40:19.543Z,5.94
2018-11-28T08:41:19.534Z,6.00
2018-11-28T08:42:19.515Z,5.94
2018-11-28T08:43:19.491Z,5.97
2018-11-28T08:44:19.460Z,5.94
2018-11-28T08:45:19.546Z,6.00
2018-11-28T08:46:19.410Z,6.06
2018-11-28T08:47:19.388Z,6.09
2018-11-28T08:48:19.396Z,6.01
2018-11-28T08:49:19.357Z,5.97
2018-11-28T08:50:19.370Z,6.03
2018-11-28T08:51:19.325Z,6.09
2018-11-28T08:52:19.276Z,6.09
2018-11-28T08:53:19.280Z,6.09
2018-11-28T08:54:19.234Z,6.09
2018-11-28T08:55:19.213Z,6.08
2018-11-28T08:56:19.211Z,6.11
2018-11-28T08:57:19.170Z,6.12
2018-11-28T08:58:19.164Z,6.04
2018-11-28T08:59:19.151Z,6.06
2018-11-28T09:00:19.119Z,6.11
2018-11-28T09:01:19.078Z,6.19
2018-11-28T09:02:19.073Z,6.18
2018-11-28T09:03:33.184Z,6.11
2018-11-28T09:04:19.013Z,6.19
2018-11-28T09:05:18.994Z,6.22
2018-11-28T09:06:18.971Z,6.25
2018-11-28T09:07:18.966Z,6.21
2018-11-28T09:08:18.927Z,6.30
2018-11-28T09:09:18.907Z,6.30
2018-11-28T09:10:18.884Z,6.31
2018-11-28T09:11:18.882Z,6.25
2018-11-28T09:12:18.840Z,6.25
2018-11-28T09:13:18.826Z,6.30
2018-11-28T09:14:18.795Z,6.34
2018-11-28T09:15:18.821Z,6.33
2018-11-28T09:16:18.755Z,6.30
2018-11-28T09:17:18.750Z,6.36
2018-11-28T09:18:18.712Z,6.34
2018-11-28T09:19:18.696Z,6.36
2018-11-28T09:20:18.695Z,6.30
2018-11-28T09:21:18.639Z,6.31
2018-11-28T09:22:18.623Z,6.38
2018-11-28T09:23:18.629Z,6.43
2018-11-28T09:24:18.578Z,6.37
2018-11-28T09:25:18.575Z,6.33
2018-11-28T09:26:18.536Z,6.33
2018-11-28T09:27:18.559Z,6.36
2018-11-28T09:28:18.491Z,6.48
2018-11-28T09:29:18.479Z,6.44
2018-11-28T09:30:18.473Z,6.41
2018-11-28T09:31:18.424Z,6.52
2018-11-28T09:32:18.407Z,6.52
2018-11-28T09:33:18.381Z,6.48
2018-11-28T09:34:18.368Z,6.48
2018-11-28T09:35:18.364Z,6.46
2018-11-28T09:36:18.316Z,6.48
2018-11-28T09:37:18.300Z,6.48
2018-11-28T09:38:18.279Z,6.44
2018-11-28T09:39:18.281Z,6.51
2018-11-28T09:40:18.226Z,6.52
2018-11-28T09:41:18.223Z,6.48
2018-11-28T09:42:18.274Z,6.55
2018-11-28T09:43:18.163Z,6.59
2018-11-28T09:44:18.137Z,6.61
2018-11-28T09:45:18.121Z,6.56
2018-11-28T09:46:18.118Z,6.70
2018-11-28T09:47:18.077Z,6.59
2018-11-28T09:48:18.054Z,6.62
2018-11-28T09:49:18.049Z,6.64
2018-11-28T09:50:18.029Z,6.62
2018-11-28T09:51:18.004Z,6.62
2018-11-28T09:52:17.985Z,6.67
2018-11-28T09:53:17.949Z,6.64
2018-11-28T09:54:17.923Z,6.59
2018-11-28T09:55:17.905Z,6.62
2018-11-28T09:56:17.888Z,6.73
2018-11-28T09:57:17.860Z,6.73
2018-11-28T09:58:17.861Z,6.67
2018-11-28T09:59:17.816Z,6.70
2018-11-28T10:00:17.797Z,6.79
2018-11-28T10:01:17.793Z,6.67
2018-11-28T10:02:17.770Z,6.77
2018-11-28T10:03:17.750Z,6.73
2018-11-28T10:04:17.712Z,6.87
2018-11-28T10:05:17.685Z,6.73
2018-11-28T10:06:17.666Z,6.76
2018-11-28T10:07:17.647Z,6.79
2018-11-28T10:08:17.643Z,6.71
2018-11-28T10:09:17.603Z,6.76
2018-11-28T10:10:17.592Z,6.76
2018-11-28T10:11:17.560Z,6.77
2018-11-28T10:12:17.543Z,6.77
2018-11-28T10:13:17.538Z,6.71
2018-11-28T10:14:17.510Z,6.77
2018-11-28T10:15:17.489Z,6.76
2018-11-28T10:16:17.453Z,6.91
2018-11-28T10:17:17.436Z,6.81
2018-11-28T10:18:17.438Z,6.87
2018-11-28T10:19:17.390Z,6.81
2018-11-28T10:20:17.373Z,6.79
2018-11-28T10:21:17.354Z,6.80
2018-11-28T10:22:17.321Z,6.76
2018-11-28T10:23:17.298Z,6.95
2018-11-28T10:24:17.307Z,6.87
2018-11-28T10:25:17.258Z,6.80
2018-11-28T10:26:17.238Z,6.85
2018-11-28T10:27:17.215Z,7.15
2018-11-28T10:28:17.193Z,7.16
2018-11-28T10:29:17.176Z,7.06
2018-11-28T10:30:17.174Z,7.20
2018-11-28T10:31:17.131Z,6.95
2018-11-28T10:32:17.106Z,6.98
2018-11-28T10:33:17.110Z,6.95
2018-11-28T10:34:17.067Z,6.91
2018-11-28T10:35:17.048Z,6.91
2018-11-28T10:36:17.033Z,6.94
2018-11-28T10:37:17.002Z,6.91
2018-11-28T10:38:16.981Z,6.95
2018-11-28T10:39:16.957Z,6.98
2018-11-28T10:40:16.955Z,6.99
2018-11-28T10:41:16.934Z,6.99
2018-11-28T10:42:16.896Z,6.99
2018-11-28T10:43:16.876Z,6.99
2018-11-28T10:44:16.860Z,6.99
2018-11-28T10:45:16.849Z,7.06
2018-11-28T10:46:16.825Z,6.95
2018-11-28T10:47:16.804Z,6.98
2018-11-28T10:48:16.761Z,6.97
2018-11-28T10:49:16.756Z,7.12
2018-11-28T10:50:16.729Z,7.12
2018-11-28T10:51:16.700Z,7.17
2018-11-28T10:52:16.714Z,7.09
2018-11-28T10:53:16.718Z,7.10
2018-11-28T10:54:16.650Z,7.07
2018-11-28T10:55:16.621Z,7.12
2018-11-28T10:56:16.598Z,7.23
2018-11-28T10:57:16.574Z,7.07
2018-11-28T10:58:16.549Z,7.12
2018-11-28T10:59:16.559Z,7.13
2018-11-28T11:00:16.514Z,7.20
2018-11-28T11:01:16.487Z,7.24
2018-11-28T11:02:16.464Z,7.27
2018-11-28T11:03:16.449Z,7.24
2018-11-28T11:04:16.438Z,7.32
2018-11-28T11:05:16.424Z,7.25
2018-11-28T11:06:16.394Z,7.27
2018-11-28T11:07:16.363Z,7.35
2018-11-28T11:08:16.368Z,7.45
2018-11-28T11:09:16.325Z,7.45
2018-11-28T11:10:16.306Z,7.39
2018-11-28T11:11:16.308Z,7.39
2018-11-28T11:12:17.180Z,7.35
2018-11-28T11:13:16.293Z,7.34
2018-11-28T11:14:16.719Z,7.37
2018-11-28T11:15:16.252Z,7.48
2018-11-28T11:16:16.170Z,7.37
2018-11-28T11:17:16.278Z,7.40
2018-11-28T11:18:16.227Z,7.40
2018-11-28T11:19:16.716Z,7.48
2018-11-28T11:20:16.217Z,7.48
2018-11-28T11:21:16.635Z,7.42
2018-11-28T11:22:16.051Z,7.42
2018-11-28T11:23:16.019Z,7.46
2018-11-28T11:24:16.046Z,7.48
2018-11-28T11:25:16.024Z,7.49
2018-11-28T11:26:15.974Z,7.50
2018-11-28T11:27:15.934Z,7.46
2018-11-28T11:28:15.917Z,7.57
2018-11-28T11:29:15.898Z,7.60
2018-11-28T11:30:15.873Z,7.53
2018-11-28T11:31:16.036Z,7.68
2018-11-28T11:32:15.828Z,7.77
2018-11-28T11:33:15.897Z,7.67
2018-11-28T11:34:15.830Z,7.72
2018-11-28T11:35:15.774Z,7.58
2018-11-28T11:36:15.766Z,7.64
2018-11-28T11:37:15.729Z,7.71
2018-11-28T11:38:15.702Z,7.82
2018-11-28T11:39:15.694Z,7.68
2018-11-28T11:40:15.668Z,7.69
2018-11-28T11:41:15.653Z,7.82
2018-11-28T11:42:15.647Z,7.87
2018-11-28T11:43:15.600Z,7.85
2018-11-28T11:44:15.576Z,7.87
2018-11-28T11:45:15.674Z,7.80
2018-11-28T11:46:15.542Z,7.85
2018-11-28T11:47:15.658Z,7.86
2018-11-28T11:48:15.515Z,7.85
2018-11-28T11:49:15.481Z,7.85
2018-11-28T11:50:15.453Z,7.89
2018-11-28T11:51:15.434Z,7.93
2018-11-28T11:52:15.415Z,8.04
2018-11-28T11:53:15.409Z,7.95
2018-11-28T11:54:15.372Z,7.97
2018-11-28T11:55:15.390Z,8.01
2018-11-28T11:56:15.333Z,8.10
2018-11-28T11:57:15.328Z,8.05
2018-11-28T11:58:15.304Z,8.05
2018-11-28T11:59:15.269Z,8.08
2018-11-28T12:00:15.248Z,8.10
2018-11-28T12:01:15.275Z,8.05
2018-11-28T12:02:15.214Z,8.02
2018-11-28T12:03:15.205Z,8.05
2018-11-28T12:04:15.160Z,7.95
2018-11-28T12:05:15.193Z,7.98
2018-11-28T12:06:15.119Z,7.98
2018-11-28T12:07:15.102Z,7.97
2018-11-28T12:08:15.099Z,7.98
2018-11-28T12:10:57.082Z,8.12
2018-11-28T12:11:57.062Z,8.00
2018-11-28T12:12:57.034Z,8.04
2018-11-28T12:13:57.035Z,8.00
2018-11-28T12:14:56.998Z,8.04
2018-11-28T12:15:57.031Z,8.02
2018-11-28T12:16:56.955Z,8.10
2018-11-28T12:17:56.946Z,8.11
2018-11-28T12:18:56.936Z,8.18
2018-11-28T12:19:56.894Z,8.15
2018-11-28T12:20:56.872Z,8.22
2018-11-28T12:21:56.854Z,8.18
2018-11-28T12:22:56.831Z,8.18
2018-11-28T12:23:56.846Z,8.22
2018-11-28T12:24:56.807Z,8.23
2018-11-28T12:25:56.769Z,8.25
2018-11-28T12:26:56.751Z,8.18
2018-11-28T12:27:56.775Z,8.25
2018-11-28T12:28:56.706Z,8.25
2018-11-28T12:29:56.703Z,8.23
2018-11-28T12:30:56.677Z,8.36
2018-11-28T12:31:56.648Z,8.26
2018-11-28T12:32:56.624Z,8.44
2018-11-28T12:33:56.603Z,8.37
2018-11-28T12:34:56.597Z,8.36
2018-11-28T12:35:56.560Z,8.26
2018-11-28T12:36:56.547Z,8.29
2018-11-28T12:37:56.535Z,8.36
2018-11-28T12:38:56.497Z,8.43
2018-11-28T12:39:56.483Z,8.36
2018-11-28T12:40:56.480Z,8.30
2018-11-28T12:41:56.449Z,8.41
2018-11-28T12:42:56.417Z,8.18
2018-11-28T12:43:56.399Z,8.26
2018-11-28T12:44:56.381Z,8.20
2018-11-28T12:45:56.379Z,8.19
2018-11-28T12:46:56.351Z,8.20
2018-11-28T12:47:56.314Z,8.18
2018-11-28T12:48:56.295Z,8.23
2018-11-28T12:49:56.277Z,8.23
2018-11-28T12:50:56.274Z,8.20
2018-11-28T12:51:56.247Z,8.22
2018-11-28T12:52:56.213Z,8.20
2018-11-28T12:53:56.201Z,8.22
2018-11-28T12:54:56.174Z,8.22
2018-11-28T12:55:56.183Z,8.25
2018-11-28T12:56:56.151Z,8.16
2018-11-28T12:57:56.118Z,8.25
2018-11-28T12:58:56.094Z,8.15
2018-11-28T12:59:56.091Z,8.23
2018-11-28T13:00:56.053Z,8.20
2018-11-28T13:01:56.031Z,8.25
2018-11-28T13:02:56.027Z,8.19
2018-11-28T13:03:55.988Z,8.23
2018-11-28T13:04:59.827Z,8.16
2018-11-28T13:05:55.958Z,8.23
2018-11-28T13:06:55.934Z,8.22
2018-11-28T13:07:55.923Z,8.19
2018-11-28T13:08:55.886Z,8.26
2018-11-28T13:09:55.892Z,8.20
2018-11-28T13:10:55.845Z,8.23
2018-11-28T13:11:59.941Z,8.16
2018-11-28T13:12:55.834Z,8.16
2018-11-28T13:13:55.783Z,8.20
2018-11-28T13:14:55.761Z,8.22
2018-11-28T13:15:55.756Z,8.20
2018-11-28T13:16:55.724Z,8.22
2018-11-28T13:17:55.703Z,8.19
2018-11-28T13:18:55.679Z,8.20
2018-11-28T13:19:58.940Z,8.18